createdAt,value
2019-05-03T10:04:13.294Z,37.30
2019-05-03T10:06:41.729Z,38.40
2019-05-03T10:09:10.105Z,38.50
2019-05-03T10:11:38.485Z,39.70
2019-05-03T10:14:06.903Z,40.30
2019-05-03T10:16:36.923Z,40.00
2019-05-03T10:19:05.301Z,39.50
2019-05-03T10:21:35.607Z,40.20
2019-05-03T10:24:05.722Z,40.10
2019-05-03T10:26:35.583Z,41.00
2019-05-03T10:29:05.436Z,40.50
2019-05-03T10:31:38.243Z,40.90
2019-05-03T10:34:06.623Z,38.30
2019-05-03T10:36:35.665Z,37.30
2019-05-03T10:39:05.231Z,37.50
2019-05-03T10:41:34.748Z,37.90
2019-05-03T10:44:03.290Z,38.20
2019-05-03T10:46:31.699Z,38.50
2019-05-03T10:49:00.087Z,37.50
2019-05-03T10:51:30.105Z,37.30
2019-05-03T10:54:00.028Z,37.60
2019-05-03T10:56:30.015Z,37.00
2019-05-03T10:59:00.044Z,38.20
2019-05-03T11:01:32.747Z,37.60
2019-05-03T11:04:01.167Z,37.30
2019-05-03T11:06:29.545Z,37.50
2019-05-03T11:08:59.671Z,34.90
2019-05-03T11:11:28.113Z,35.00
2019-05-03T11:13:56.479Z,36.30
2019-05-03T11:16:25.488Z,35.90
2019-05-03T11:18:54.893Z,35.20
2019-05-03T11:21:28.887Z,35.30
2019-05-03T11:23:54.525Z,35.50
2019-05-03T11:26:25.122Z,35.50
2019-05-03T11:28:53.039Z,34.90
2019-05-03T11:31:39.339Z,35.00
2019-05-03T11:34:12.418Z,34.70
2019-05-03T11:36:51.711Z,34.10
2019-05-03T11:39:20.091Z,34.00
2019-05-03T11:41:50.111Z,33.90
2019-05-03T11:44:36.449Z,33.90
2019-05-03T11:47:05.797Z,33.90
2019-05-03T11:49:34.850Z,33.90
2019-05-03T11:52:03.383Z,33.90
2019-05-03T11:54:31.772Z,33.80
2019-05-03T11:57:01.790Z,33.70
2019-05-03T11:59:30.179Z,33.80
2019-05-03T12:02:09.425Z,33.80
2019-05-03T12:04:37.881Z,33.70
2019-05-03T12:07:06.309Z,33.70
2019-05-03T12:09:34.683Z,33.70
2019-05-03T12:12:04.883Z,34.00
2019-05-03T12:14:34.640Z,33.80
2019-05-03T12:17:20.108Z,32.20
2019-05-03T12:19:46.475Z,33.10
2019-05-03T12:22:16.147Z,33.20
2019-05-03T12:24:45.741Z,35.00
2019-05-03T12:27:15.003Z,35.40
2019-05-03T12:29:44.715Z,36.00
2019-05-03T12:32:14.424Z,36.20
2019-05-03T12:34:42.988Z,36.00
2019-05-03T12:37:11.411Z,36.60
2019-05-03T12:39:39.790Z,36.70
2019-05-03T12:42:08.162Z,37.00
2019-05-03T12:44:36.588Z,37.50
2019-05-03T12:47:05.976Z,37.70
2019-05-03T12:49:35.786Z,37.00
2019-05-03T12:52:05.358Z,37.30
2019-05-03T12:54:35.572Z,36.80
2019-05-03T12:57:05.033Z,37.40
2019-05-03T12:59:38.295Z,36.70
2019-05-03T13:02:15.480Z,36.10
2019-05-03T13:04:45.725Z,36.30
2019-05-03T13:07:15.860Z,37.00
2019-05-03T13:09:45.320Z,37.40
2019-05-03T13:12:15.476Z,38.20
2019-05-03T13:14:45.384Z,28.20
2019-05-03T13:17:15.223Z,31.70
2019-05-03T13:19:45.186Z,28.20
2019-05-03T13:22:13.860Z,30.80
2019-05-03T13:24:42.216Z,33.00
2019-05-03T13:27:10.595Z,34.40
2019-05-03T13:29:39.007Z,35.70
2019-05-03T13:32:07.382Z,32.90
2019-05-03T13:34:35.759Z,35.80
2019-05-03T13:37:04.148Z,36.20
2019-05-03T13:39:32.532Z,36.20
2019-05-03T13:42:00.959Z,36.10
2019-05-03T13:44:29.419Z,26.50
2019-05-03T13:46:57.796Z,27.10
2019-05-03T13:49:26.637Z,27.20
2019-05-03T13:51:55.078Z,28.10
2019-05-03T13:54:25.389Z,27.70
2019-05-03T13:56:55.206Z,27.60
2019-05-03T13:59:24.661Z,27.10
2019-05-03T14:01:54.528Z,26.70
2019-05-03T14:04:23.099Z,26.70
2019-05-03T14:06:51.490Z,26.80
2019-05-03T14:09:19.876Z,26.80
2019-05-03T14:11:48.303Z,27.80
2019-05-03T14:14:16.751Z,26.90
2019-05-03T14:16:45.289Z,27.60
2019-05-03T14:19:15.356Z,27.30
2019-05-03T14:21:45.387Z,26.60
2019-05-03T14:24:15.587Z,26.60
2019-05-03T14:26:44.748Z,26.70
2019-05-03T14:29:14.828Z,27.50
2019-05-03T14:31:45.360Z,27.10
2019-05-03T14:34:16.998Z,27.20
2019-05-03T14:36:44.987Z,30.90
2019-05-03T14:40:21.223Z,29.60
2019-05-03T14:42:49.593Z,30.90
2019-05-03T14:45:17.985Z,30.50
2019-05-03T14:47:46.387Z,30.50
2019-05-03T14:50:15.134Z,30.20
2019-05-03T14:52:45.496Z,27.80
2019-05-03T14:55:15.324Z,26.90
2019-05-03T14:57:45.344Z,28.00
2019-05-03T15:00:17.313Z,28.60
2019-05-03T15:02:50.728Z,30.60
2019-05-03T15:05:17.063Z,26.30
2019-05-03T15:07:45.887Z,26.50
2019-05-03T15:10:15.066Z,26.80
2019-05-03T15:12:45.247Z,26.90
2019-05-03T15:15:14.664Z,27.50
2019-05-03T15:17:43.139Z,27.30
2019-05-03T15:20:11.519Z,27.20
2019-05-03T15:22:39.919Z,27.40
2019-05-03T15:25:08.341Z,27.30
2019-05-03T15:27:36.718Z,27.30
2019-05-03T15:30:06.733Z,27.20
2019-05-03T15:32:35.441Z,27.50
2019-05-03T15:35:06.205Z,27.70
2019-05-03T15:37:35.764Z,27.50
2019-05-03T15:40:06.616Z,27.40
2019-05-03T15:42:35.499Z,27.40
2019-05-03T15:45:10.120Z,27.70
2019-05-03T15:47:56.335Z,27.50
2019-05-03T15:50:25.149Z,27.80
2019-05-03T15:52:55.032Z,28.00
2019-05-03T15:55:24.633Z,27.60
2019-05-03T15:57:55.181Z,27.70
2019-05-03T16:00:24.500Z,27.70
2019-05-03T16:02:54.747Z,27.80
2019-05-03T16:05:24.937Z,27.60
2019-05-03T16:07:55.155Z,27.60
2019-05-03T16:10:24.943Z,27.60
2019-05-03T16:12:54.541Z,27.50
2019-05-03T16:15:24.646Z,27.60
2019-05-03T16:17:54.719Z,27.50
2019-05-03T16:20:24.982Z,27.60
2019-05-03T16:22:54.470Z,28.20
2019-05-03T16:25:24.928Z,27.80
2019-05-03T16:28:04.807Z,27.80
2019-05-03T16:30:36.600Z,27.60
2019-05-03T16:33:04.995Z,27.60
2019-05-03T16:35:34.972Z,27.50
2019-05-03T16:38:03.401Z,27.90
2019-05-03T16:40:31.823Z,27.80
2019-05-03T16:43:00.195Z,27.50
2019-05-03T16:45:28.575Z,27.70
2019-05-03T16:47:56.958Z,27.60
2019-05-03T16:50:25.345Z,27.50
2019-05-03T16:52:54.982Z,27.10
2019-05-03T16:55:25.170Z,27.40
2019-05-03T16:57:54.883Z,27.20
2019-05-03T17:00:24.990Z,27.40
2019-05-03T17:02:55.135Z,27.40
2019-05-03T17:05:28.209Z,27.50
2019-05-03T17:08:16.297Z,27.70
2019-05-03T17:11:01.397Z,27.70
2019-05-03T17:13:29.841Z,27.80
2019-05-03T17:15:58.219Z,27.90
2019-05-03T17:18:26.602Z,28.00
2019-05-03T17:20:54.987Z,25.60
2019-05-03T17:23:24.613Z,29.00
2019-05-03T17:25:53.208Z,29.90
2019-05-03T17:28:21.601Z,31.30
2019-05-03T17:30:50.003Z,31.10
2019-05-03T17:33:18.397Z,31.20
2019-05-03T17:35:46.773Z,31.30
2019-05-03T17:38:15.177Z,26.90
2019-05-03T17:40:48.289Z,29.20
2019-05-03T17:43:18.307Z,30.00
2019-05-03T17:45:51.146Z,30.00
2019-05-03T17:48:19.581Z,25.60
2019-05-03T17:50:48.025Z,28.00
2019-05-03T17:53:34.669Z,25.80
2019-05-03T17:56:07.409Z,27.60
2019-05-03T17:58:46.226Z,28.50
2019-05-03T18:01:16.307Z,28.50
2019-05-03T18:03:46.367Z,28.70
2019-05-03T18:06:25.627Z,28.50
2019-05-03T18:09:11.881Z,28.20
2019-05-03T18:11:45.137Z,27.90
2019-05-03T18:14:14.688Z,27.70
2019-05-03T18:16:44.299Z,27.50
2019-05-03T18:19:12.772Z,27.20
2019-05-03T18:21:41.140Z,27.00
2019-05-03T18:24:09.591Z,26.90
2019-05-03T18:26:37.965Z,27.40
2019-05-03T18:29:06.331Z,28.00
2019-05-03T18:31:34.731Z,28.30
2019-05-03T18:34:05.041Z,28.90
2019-05-03T18:36:34.701Z,29.60
2019-05-03T18:39:03.208Z,29.80
2019-05-03T18:41:31.639Z,29.60
2019-05-03T18:44:14.768Z,29.70
2019-05-03T18:46:44.975Z,29.90
2019-05-03T18:49:14.667Z,29.90
2019-05-03T18:51:44.748Z,30.10
2019-05-03T18:54:13.145Z,29.90
2019-05-03T18:56:41.541Z,30.00
2019-05-03T18:59:09.931Z,30.20
2019-05-03T19:01:38.313Z,30.20
2019-05-03T19:04:17.287Z,30.30
2019-05-03T19:06:45.707Z,30.60
2019-05-03T19:09:15.905Z,31.00
2019-05-03T19:11:48.508Z,31.10
2019-05-03T19:14:25.496Z,31.30
2019-05-03T19:16:55.636Z,31.50
2019-05-03T19:19:25.659Z,31.70
2019-05-03T19:21:55.963Z,31.60
2019-05-03T19:24:24.588Z,31.20
2019-05-03T19:26:54.359Z,31.00
2019-05-03T19:29:24.669Z,31.50
2019-05-03T19:31:55.158Z,31.80
2019-05-03T19:34:24.258Z,32.00
2019-05-03T19:36:54.745Z,32.00
2019-05-03T19:39:25.098Z,32.00
2019-05-03T19:41:55.155Z,32.00
2019-05-03T19:44:23.303Z,32.00
2019-05-03T19:46:51.691Z,32.00
2019-05-03T19:49:20.052Z,32.10
2019-05-03T19:51:48.501Z,32.20
2019-05-03T19:54:16.889Z,32.10
2019-05-03T19:56:46.876Z,32.10
2019-05-03T19:59:17.024Z,32.10
2019-05-03T20:01:55.086Z,32.20
2019-05-03T20:04:27.220Z,32.30
2019-05-03T20:07:14.696Z,32.30
2019-05-03T20:09:44.570Z,32.40
2019-05-03T20:12:14.896Z,32.30
2019-05-03T20:14:44.992Z,32.20
2019-05-03T20:17:14.788Z,32.30
2019-05-03T20:19:45.064Z,32.20
2019-05-03T20:22:15.162Z,32.10
2019-05-03T20:24:44.744Z,32.00
2019-05-03T20:27:15.050Z,32.80
2019-05-03T20:29:44.346Z,32.10
2019-05-03T20:32:13.336Z,32.20
2019-05-03T20:34:41.714Z,32.30
2019-05-03T20:37:10.140Z,32.00
2019-05-03T20:39:38.525Z,32.40
2019-05-03T20:42:06.982Z,32.60
2019-05-03T20:44:37.017Z,32.70
2019-05-03T20:47:14.836Z,32.60
2019-05-03T20:49:42.952Z,32.20
2019-05-03T20:52:11.328Z,32.60
2019-05-03T20:54:39.741Z,32.50
2019-05-03T20:57:08.110Z,32.40
2019-05-03T20:59:45.344Z,32.20
2019-05-03T21:02:06.547Z,32.10
2019-05-03T21:04:35.448Z,34.50
2019-05-03T21:07:04.711Z,31.40
2019-05-03T21:09:34.574Z,31.80
2019-05-03T21:12:04.511Z,30.80
2019-05-03T21:14:34.911Z,31.40
2019-05-03T21:17:10.740Z,32.30
2019-05-03T21:19:49.821Z,38.00
2019-05-03T21:22:19.872Z,32.00
2019-05-03T21:24:52.460Z,31.60
2019-05-03T21:27:20.839Z,29.60
2019-05-03T21:29:51.081Z,29.60
2019-05-03T21:32:19.596Z,29.90
2019-05-03T21:34:48.324Z,30.20
2019-05-03T21:37:16.715Z,30.60
2019-05-03T21:39:45.449Z,31.00
2019-05-03T21:42:15.198Z,31.10
2019-05-03T21:44:44.808Z,31.20
2019-05-03T21:47:20.950Z,31.90
2019-05-03T21:49:50.970Z,32.00
2019-05-03T21:52:19.343Z,31.40
2019-05-03T21:54:47.746Z,31.20
2019-05-03T21:57:19.225Z,31.20
2019-05-03T21:59:47.636Z,31.20
2019-05-03T22:02:16.184Z,31.00
2019-05-03T22:06:55.072Z,32.20
2019-05-03T22:09:23.447Z,23.30
2019-05-03T22:11:52.241Z,26.00
2019-05-03T22:14:28.110Z,29.30
2019-05-03T22:17:04.573Z,33.20
2019-05-03T22:19:34.338Z,37.20
2019-05-03T22:22:20.678Z,40.60
2019-05-03T22:24:50.740Z,42.80
2019-05-03T22:27:19.749Z,45.30
2019-05-03T22:29:48.143Z,47.30
2019-05-03T22:32:16.591Z,48.00
2019-05-03T22:34:45.024Z,48.90
2019-05-03T22:37:14.279Z,49.50
2019-05-03T22:39:45.197Z,50.30
2019-05-03T22:42:14.826Z,50.30
2019-05-03T22:44:44.802Z,49.90
2019-05-03T22:47:14.738Z,49.70
2019-05-03T22:49:45.441Z,50.50
2019-05-03T22:52:15.272Z,51.80
2019-05-03T22:54:44.969Z,51.70
2019-05-03T22:57:15.125Z,51.80
2019-05-03T22:59:44.895Z,52.20
2019-05-03T23:02:16.820Z,53.10
2019-05-03T23:04:44.791Z,51.60
2019-05-03T23:07:14.870Z,51.90
2019-05-03T23:09:44.619Z,52.20
2019-05-03T23:12:13.328Z,53.10
2019-05-03T23:14:41.778Z,52.40
2019-05-03T23:17:10.147Z,52.60
2019-05-03T23:19:40.212Z,52.50
2019-05-03T23:22:10.231Z,52.50
2019-05-03T23:24:38.616Z,52.70
2019-05-03T23:27:07.022Z,53.40
2019-05-03T23:29:35.433Z,53.40
2019-05-03T23:32:04.692Z,53.90
2019-05-03T23:34:35.138Z,54.60
2019-05-03T23:37:05.250Z,54.10
2019-05-03T23:39:33.260Z,53.90
2019-05-03T23:42:01.675Z,53.90
2019-05-03T23:44:30.068Z,53.50
2019-05-03T23:47:05.082Z,53.40
2019-05-03T23:49:35.131Z,53.10
2019-05-03T23:52:04.944Z,53.90
2019-05-03T23:54:33.331Z,53.40
2019-05-03T23:57:01.763Z,53.20
2019-05-03T23:59:30.147Z,53.10
